Weather History for KBGF - November, 2012

Change the Weather History Date:

Friday, November 2, 2012

  Actual Average (KTHA) Record (KTHA)
Temperature  
Mean Temperature 52 °F -  
Max Temperature 69 °F 66 °F 62 °F (2013)
Min Temperature 35 °F 45 °F 24 °F (2014)
Degree Days  
Heating Degree Days 13    
Growing Degree Days 2 (Base 50)    
Moisture  
Dew Point 39 °F    
Average Humidity 67    
Maximum Humidity 93    
Minimum Humidity 33    
Precipitation  
Precipitation 0.00 in - - ()
Sea Level Pressure  
Sea Level Pressure 29.99 in    
Wind  
Wind Speed 2 mph ()    
Max Wind Speed 12 mph    
Max Gust Speed -    
Visibility 10.0 miles    
Events      
Averages and records for this station are not official NWS values.
T = Trace of Precipitation, MM = Missing Value Source: Averaged Metar Reports

Daily Weather History Graph

Daily Weather History Graph

Search for Another Location

Airport or City:

Trip Planner

Search our weather history database for the weather conditions in past years. The results will help you decide how hot, cold, wet, or windy it might be!

Date:

Astronomy

Nov. 02, 2012 Rise Set
Actual Time 8:06 AM EDT 6:48 PM EDT
Civil Twilight 7:40 AM EDT 7:14 PM EDT
Nautical Twilight 7:10 AM EDT 7:44 PM EDT
Astronomical Twilight 6:40 AM EDT 8:14 PM EDT
Moon 9:39 PM EDT (11/2) 11:22 AM EDT (11/2)
Length of Visible Light 11h 33m
Length of Day
10h 41m
Waning Gibbous, 87% of the Moon is Illuminated
Nov 2
Waning Gibbous
Nov 6
Last Quarter
Nov 13
New
Nov 20
First Quarter
Nov 28
Full

Hourly Weather History & Observations

Time (EDT) Temp. Windchill Dew Point Humidity Pressure Visibility Wind Dir Wind Speed Gust Speed Precip Events Conditions
12:15 AM 44.6 °F - 35.6 °F 71% 29.98 in 10.0 mi Calm Calm - N/A   Overcast
12:35 AM 46.4 °F - 35.6 °F 66% 29.98 in 10.0 mi Calm Calm - N/A   Overcast
12:55 AM 46.4 °F - 33.8 °F 62% 29.98 in 10.0 mi Calm Calm - N/A   Scattered Clouds
1:15 AM 46.4 °F - 35.6 °F 66% 29.99 in 10.0 mi Calm Calm - N/A   Unknown
1:35 AM 46.4 °F - 37.4 °F 71% 29.98 in 10.0 mi Calm Calm - N/A   Partly Cloudy
1:55 AM 44.6 °F - 37.4 °F 76% 29.98 in 10.0 mi Calm Calm - N/A   Mostly Cloudy
2:15 AM 46.4 °F - 35.6 °F 66% 29.97 in 10.0 mi Calm Calm - N/A   Overcast
2:35 AM 44.6 °F - 35.6 °F 71% 29.97 in 10.0 mi Calm Calm - N/A   Scattered Clouds
2:55 AM 42.8 °F - 35.6 °F 76% 29.98 in 10.0 mi Calm Calm - N/A   Clear
3:15 AM 41.0 °F - 35.6 °F 81% 29.98 in 10.0 mi Calm Calm - N/A   Clear
3:35 AM 39.2 °F - 35.6 °F 87% 29.98 in 10.0 mi Calm Calm - N/A   Clear
3:55 AM 37.4 °F - 35.6 °F 93% 29.98 in 10.0 mi Calm Calm - N/A   Clear
4:15 AM 39.2 °F - 33.8 °F 81% 29.98 in 10.0 mi Calm Calm - N/A   Clear
4:35 AM 37.4 °F - 33.8 °F 87% 29.97 in 10.0 mi Calm Calm - N/A   Clear
4:55 AM 37.4 °F - 33.8 °F 87% 29.97 in 10.0 mi Calm Calm - N/A   Clear
5:15 AM 37.4 °F 34.9 °F 33.8 °F 87% 29.97 in 10.0 mi SSE 3.5 mph - N/A   Clear
5:35 AM 35.6 °F - 33.8 °F 93% 29.96 in 10.0 mi Calm Calm - N/A   Clear
5:55 AM 37.4 °F - 33.8 °F 87% 29.96 in 10.0 mi Calm Calm - N/A   Clear
6:15 AM 37.4 °F - 33.8 °F 87% 29.97 in 10.0 mi Calm Calm - N/A   Clear
6:35 AM 37.4 °F - 33.8 °F 87% 29.97 in 10.0 mi Calm Calm - N/A   Clear
6:55 AM 37.4 °F - 33.8 °F 87% 29.97 in 10.0 mi Calm Calm - N/A   Clear
7:15 AM 35.6 °F - 33.8 °F 93% 29.97 in 10.0 mi Calm Calm - N/A   Clear
7:35 AM 35.6 °F - 33.8 °F 93% 29.97 in 10.0 mi Calm Calm - N/A   Clear
7:55 AM 37.4 °F - 33.8 °F 87% 29.97 in 10.0 mi Calm Calm - N/A   Clear
8:15 AM 37.4 °F - 33.8 °F 87% 29.97 in 10.0 mi Calm Calm - N/A   Clear
8:35 AM 37.4 °F - 33.8 °F 87% 29.98 in 10.0 mi Calm Calm - N/A   Clear
8:55 AM 39.2 °F - 35.6 °F 87% 29.98 in 10.0 mi Calm Calm - N/A   Clear
9:15 AM 42.8 °F - 37.4 °F 81% 29.99 in 10.0 mi Calm Calm - N/A   Clear
9:35 AM 46.4 °F - 42.8 °F 87% 30.00 in 10.0 mi Calm Calm - N/A   Clear
9:55 AM 55.4 °F - 42.8 °F 63% 30.00 in 10.0 mi West 8.1 mph - N/A   Clear
10:15 AM 57.2 °F - 42.8 °F 59% 30.00 in 10.0 mi West 8.1 mph - N/A   Clear
10:35 AM 59.0 °F - 42.8 °F 55% 30.00 in 10.0 mi WSW 10.4 mph - N/A   Clear
10:55 AM 59.0 °F - 42.8 °F 55% 30.00 in 10.0 mi West 8.1 mph - N/A   Clear
11:15 AM 60.8 °F - 44.6 °F 55% 30.00 in 10.0 mi Variable 6.9 mph - N/A   Clear
11:35 AM 60.8 °F - 44.6 °F 55% 30.00 in 10.0 mi West 9.2 mph - N/A   Clear
11:55 AM 62.6 °F - 44.6 °F 52% 30.00 in 10.0 mi West 9.2 mph - N/A   Clear
12:15 PM 62.6 °F - 46.4 °F 55% 30.00 in 10.0 mi WNW 8.1 mph - N/A   Clear
12:35 PM 62.6 °F - 44.6 °F 52% 30.00 in 10.0 mi NW 8.1 mph - N/A   Clear
12:55 PM 62.6 °F - 44.6 °F 52% 30.00 in 10.0 mi WNW 8.1 mph - N/A   Clear
1:15 PM 64.4 °F - 44.6 °F 49% 29.99 in 10.0 mi WNW 10.4 mph - N/A   Clear
1:35 PM 64.4 °F - 44.6 °F 49% 29.99 in 10.0 mi West 8.1 mph - N/A   Clear
1:55 PM 66.2 °F - 44.6 °F 46% 29.98 in 10.0 mi NW 8.1 mph - N/A   Clear
2:15 PM 66.2 °F - 46.4 °F 49% 29.97 in 10.0 mi WNW 5.8 mph - N/A   Clear
2:35 PM 66.2 °F - 44.6 °F 46% 29.97 in 10.0 mi Variable 6.9 mph - N/A   Clear
2:55 PM 69.8 °F - 44.6 °F 40% 29.96 in 10.0 mi West 8.1 mph - N/A   Clear
3:15 PM 69.8 °F - 44.6 °F 40% 29.96 in 10.0 mi WNW 6.9 mph - N/A   Clear
3:35 PM 69.8 °F - 42.8 °F 38% 29.96 in 10.0 mi NW 10.4 mph - N/A   Clear
3:55 PM 69.8 °F - 42.8 °F 38% 29.97 in 10.0 mi NW 11.5 mph - N/A   Clear
4:15 PM 69.8 °F - 39.2 °F 33% 29.97 in 10.0 mi NW 5.8 mph - N/A   Clear
4:35 PM 69.8 °F - 39.2 °F 33% 29.97 in 10.0 mi WNW 10.4 mph - N/A   Clear
4:55 PM 69.8 °F - 41.0 °F 35% 29.97 in 10.0 mi NW 6.9 mph - N/A   Clear
5:15 PM 68.0 °F - 41.0 °F 37% 29.97 in 10.0 mi NW 5.8 mph - N/A   Clear
5:35 PM 68.0 °F - 39.2 °F 35% 29.98 in 10.0 mi NW 5.8 mph - N/A   Clear
5:55 PM 66.2 °F - 42.8 °F 43% 29.98 in 10.0 mi NNW 4.6 mph - N/A   Clear
6:15 PM 66.2 °F - 42.8 °F 43% 29.98 in 10.0 mi Calm Calm - N/A   Clear
6:35 PM 64.4 °F - 41.0 °F 42% 29.98 in 10.0 mi NNW 4.6 mph - N/A   Clear
6:55 PM 62.6 °F - 41.0 °F 45% 29.99 in 10.0 mi Variable 3.5 mph - N/A   Clear
7:15 PM 60.8 °F - 39.2 °F 45% 30.00 in 10.0 mi Calm Calm - N/A   Clear
7:35 PM 55.4 °F - 42.8 °F 63% 30.01 in 10.0 mi Calm Calm - N/A   Clear
7:55 PM 51.8 °F - 41.0 °F 67% 30.02 in 10.0 mi Calm Calm - N/A   Clear
8:15 PM 51.8 °F - 39.2 °F 62% 30.03 in 10.0 mi Calm Calm - N/A   Clear
8:35 PM 48.2 °F - 41.0 °F 76% 30.03 in 10.0 mi Calm Calm - N/A   Clear
8:55 PM 48.2 °F - 41.0 °F 76% 30.03 in 10.0 mi Calm Calm - N/A   Clear
9:15 PM 48.2 °F - 41.0 °F 76% 30.04 in 10.0 mi Calm Calm - N/A   Clear
9:35 PM 48.2 °F - 41.0 °F 76% 30.04 in 10.0 mi Calm Calm - N/A   Clear
9:55 PM 44.6 °F - 39.2 °F 81% 30.04 in 10.0 mi Calm Calm - N/A   Clear
10:15 PM 44.6 °F - 39.2 °F 81% 30.04 in 10.0 mi Calm Calm - N/A   Clear
10:35 PM 46.4 °F - 41.0 °F 81% 30.04 in 10.0 mi Calm Calm - N/A   Clear
10:55 PM 42.8 °F - 39.2 °F 87% 30.04 in 10.0 mi Calm Calm - N/A   Clear
11:15 PM 42.8 °F - 39.2 °F 87% 30.04 in 10.0 mi Calm Calm - N/A   Clear
11:35 PM 42.8 °F - 39.2 °F 87% 30.04 in 10.0 mi Calm Calm - N/A   Clear
11:55 PM 41.0 °F - 39.2 °F 93% 30.04 in 10.0 mi Calm Calm - N/A   Clear